sensor_id;sensor_type;location;lat;lon;timestamp;P1;durP1;ratioP1;P2;durP2;ratioP2
52380;SDS011;38310;52.796;6.942;2024-01-30T00:01:54;29.00;;;25.08;;
52380;SDS011;38310;52.796;6.942;2024-01-30T00:04:19;28.17;;;25.17;;
52380;SDS011;38310;52.796;6.942;2024-01-30T00:06:45;27.45;;;24.33;;
52380;SDS011;38310;52.796;6.942;2024-01-30T00:09:11;32.30;;;28.58;;
52380;SDS011;38310;52.796;6.942;2024-01-30T00:11:37;29.95;;;26.60;;
52380;SDS011;38310;52.796;6.942;2024-01-30T00:14:03;29.45;;;24.58;;
52380;SDS011;38310;52.796;6.942;2024-01-30T00:16:29;29.90;;;25.80;;
52380;SDS011;38310;52.796;6.942;2024-01-30T00:18:56;29.00;;;25.73;;
52380;SDS011;38310;52.796;6.942;2024-01-30T00:21:22;30.10;;;24.38;;
52380;SDS011;38310;52.796;6.942;2024-01-30T00:23:48;30.95;;;25.50;;
52380;SDS011;38310;52.796;6.942;2024-01-30T00:26:14;30.70;;;25.65;;
52380;SDS011;38310;52.796;6.942;2024-01-30T00:28:42;27.13;;;24.23;;
52380;SDS011;38310;52.796;6.942;2024-01-30T00:31:08;30.50;;;25.23;;
52380;SDS011;38310;52.796;6.942;2024-01-30T00:33:37;35.35;;;25.67;;
52380;SDS011;38310;52.796;6.942;2024-01-30T00:36:05;27.50;;;24.58;;
52380;SDS011;38310;52.796;6.942;2024-01-30T00:38:31;29.73;;;25.77;;
52380;SDS011;38310;52.796;6.942;2024-01-30T00:40:57;33.30;;;26.77;;
52380;SDS011;38310;52.796;6.942;2024-01-30T00:43:23;26.65;;;23.70;;
52380;SDS011;38310;52.796;6.942;2024-01-30T00:45:50;29.48;;;24.92;;
52380;SDS011;38310;52.796;6.942;2024-01-30T00:48:19;29.02;;;24.10;;
52380;SDS011;38310;52.796;6.942;2024-01-30T00:50:45;29.10;;;24.80;;
52380;SDS011;38310;52.796;6.942;2024-01-30T00:53:11;28.75;;;24.48;;
52380;SDS011;38310;52.796;6.942;2024-01-30T00:55:37;28.75;;;24.15;;
52380;SDS011;38310;52.796;6.942;2024-01-30T00:58:03;29.85;;;23.10;;
52380;SDS011;38310;52.796;6.942;2024-01-30T01:00:29;28.33;;;25.13;;
52380;SDS011;38310;52.796;6.942;2024-01-30T01:02:57;26.77;;;23.65;;
52380;SDS011;38310;52.796;6.942;2024-01-30T01:05:23;25.52;;;22.83;;
52380;SDS011;38310;52.796;6.942;2024-01-30T01:07:49;24.30;;;21.70;;
52380;SDS011;38310;52.796;6.942;2024-01-30T01:10:16;24.67;;;22.00;;
52380;SDS011;38310;52.796;6.942;2024-01-30T01:12:43;26.75;;;22.52;;
52380;SDS011;38310;52.796;6.942;2024-01-30T01:15:13;28.52;;;22.65;;
52380;SDS011;38310;52.796;6.942;2024-01-30T01:17:39;28.02;;;23.52;;
52380;SDS011;38310;52.796;6.942;2024-01-30T01:20:05;28.15;;;23.60;;
52380;SDS011;38310;52.796;6.942;2024-01-30T01:22:32;27.95;;;22.50;;
52380;SDS011;38310;52.796;6.942;2024-01-30T01:24:59;25.00;;;21.63;;
52380;SDS011;38310;52.796;6.942;2024-01-30T01:27:28;26.85;;;22.75;;
52380;SDS011;38310;52.796;6.942;2024-01-30T01:29:53;25.52;;;22.77;;
52380;SDS011;38310;52.796;6.942;2024-01-30T01:32:19;27.33;;;22.80;;
52380;SDS011;38310;52.796;6.942;2024-01-30T01:34:47;27.27;;;23.85;;
52380;SDS011;38310;52.796;6.942;2024-01-30T01:37:12;26.42;;;22.35;;
52380;SDS011;38310;52.796;6.942;2024-01-30T01:39:38;24.80;;;21.17;;
52380;SDS011;38310;52.796;6.942;2024-01-30T01:42:04;27.38;;;22.60;;
52380;SDS011;38310;52.796;6.942;2024-01-30T01:44:29;28.27;;;21.83;;
52380;SDS011;38310;52.796;6.942;2024-01-30T01:46:55;27.45;;;22.63;;
52380;SDS011;38310;52.796;6.942;2024-01-30T01:49:22;26.13;;;23.27;;
52380;SDS011;38310;52.796;6.942;2024-01-30T01:51:50;28.60;;;23.75;;
52380;SDS011;38310;52.796;6.942;2024-01-30T01:54:19;25.77;;;22.85;;
52380;SDS011;38310;52.796;6.942;2024-01-30T01:56:45;24.90;;;21.00;;
52380;SDS011;38310;52.796;6.942;2024-01-30T01:59:11;26.05;;;22.02;;
52380;SDS011;38310;52.796;6.942;2024-01-30T02:01:37;24.80;;;21.60;;
52380;SDS011;38310;52.796;6.942;2024-01-30T02:04:03;28.23;;;22.35;;
52380;SDS011;38310;52.796;6.942;2024-01-30T02:06:30;25.70;;;21.95;;
52380;SDS011;38310;52.796;6.942;2024-01-30T02:08:57;26.33;;;22.65;;
52380;SDS011;38310;52.796;6.942;2024-01-30T02:11:23;28.15;;;23.73;;
52380;SDS011;38310;52.796;6.942;2024-01-30T02:13:49;25.90;;;22.55;;
52380;SDS011;38310;52.796;6.942;2024-01-30T02:16:15;25.52;;;22.25;;
52380;SDS011;38310;52.796;6.942;2024-01-30T02:18:44;25.65;;;22.10;;
52380;SDS011;38310;52.796;6.942;2024-01-30T02:21:16;23.27;;;20.45;;
52380;SDS011;38310;52.796;6.942;2024-01-30T02:23:43;31.08;;;24.58;;
52380;SDS011;38310;52.796;6.942;2024-01-30T02:26:09;27.55;;;22.05;;
52380;SDS011;38310;52.796;6.942;2024-01-30T02:28:37;31.33;;;23.63;;
52380;SDS011;38310;52.796;6.942;2024-01-30T02:31:03;26.65;;;23.00;;
52380;SDS011;38310;52.796;6.942;2024-01-30T02:33:29;26.73;;;22.48;;
52380;SDS011;38310;52.796;6.942;2024-01-30T02:35:55;28.25;;;24.25;;
52380;SDS011;38310;52.796;6.942;2024-01-30T02:38:20;25.92;;;23.08;;
52380;SDS011;38310;52.796;6.942;2024-01-30T02:40:46;29.00;;;23.00;;
52380;SDS011;38310;52.796;6.942;2024-01-30T02:43:12;27.40;;;23.65;;
52380;SDS011;38310;52.796;6.942;2024-01-30T02:45:37;28.17;;;23.92;;
52380;SDS011;38310;52.796;6.942;2024-01-30T02:48:03;24.52;;;21.25;;
52380;SDS011;38310;52.796;6.942;2024-01-30T02:50:29;30.02;;;25.27;;
52380;SDS011;38310;52.796;6.942;2024-01-30T02:52:55;29.02;;;24.13;;
52380;SDS011;38310;52.796;6.942;2024-01-30T02:55:20;29.48;;;23.85;;
52380;SDS011;38310;52.796;6.942;2024-01-30T02:57:46;27.83;;;23.02;;
52380;SDS011;38310;52.796;6.942;2024-01-30T03:00:12;28.33;;;24.02;;
52380;SDS011;38310;52.796;6.942;2024-01-30T03:02:38;30.25;;;24.77;;
52380;SDS011;38310;52.796;6.942;2024-01-30T03:05:05;27.92;;;24.88;;
52380;SDS011;38310;52.796;6.942;2024-01-30T03:07:33;27.92;;;24.98;;
52380;SDS011;38310;52.796;6.942;2024-01-30T03:09:59;27.33;;;23.80;;
52380;SDS011;38310;52.796;6.942;2024-01-30T03:12:24;30.33;;;25.88;;
52380;SDS011;38310;52.796;6.942;2024-01-30T03:14:50;26.80;;;23.90;;
52380;SDS011;38310;52.796;6.942;2024-01-30T03:17:17;27.33;;;23.42;;
52380;SDS011;38310;52.796;6.942;2024-01-30T03:19:42;26.38;;;23.33;;
52380;SDS011;38310;52.796;6.942;2024-01-30T03:22:08;26.55;;;22.38;;
52380;SDS011;38310;52.796;6.942;2024-01-30T03:24:34;27.50;;;23.85;;
52380;SDS011;38310;52.796;6.942;2024-01-30T03:27:01;29.75;;;24.73;;
52380;SDS011;38310;52.796;6.942;2024-01-30T03:29:27;30.55;;;25.80;;
52380;SDS011;38310;52.796;6.942;2024-01-30T03:31:52;29.92;;;25.83;;
52380;SDS011;38310;52.796;6.942;2024-01-30T03:34:18;31.67;;;25.58;;
52380;SDS011;38310;52.796;6.942;2024-01-30T03:36:44;30.95;;;24.90;;
52380;SDS011;38310;52.796;6.942;2024-01-30T03:39:10;30.00;;;25.00;;
52380;SDS011;38310;52.796;6.942;2024-01-30T03:41:36;31.38;;;25.08;;
52380;SDS011;38310;52.796;6.942;2024-01-30T03:44:01;29.25;;;24.65;;
52380;SDS011;38310;52.796;6.942;2024-01-30T03:46:27;28.30;;;24.33;;
52380;SDS011;38310;52.796;6.942;2024-01-30T03:48:53;29.85;;;24.85;;
52380;SDS011;38310;52.796;6.942;2024-01-30T03:51:18;27.52;;;24.42;;
52380;SDS011;38310;52.796;6.942;2024-01-30T03:53:44;27.90;;;24.45;;
52380;SDS011;38310;52.796;6.942;2024-01-30T03:56:11;26.63;;;23.58;;
52380;SDS011;38310;52.796;6.942;2024-01-30T03:58:38;25.35;;;21.83;;
52380;SDS011;38310;52.796;6.942;2024-01-30T04:01:04;31.35;;;23.45;;
52380;SDS011;38310;52.796;6.942;2024-01-30T04:03:30;27.08;;;23.63;;
52380;SDS011;38310;52.796;6.942;2024-01-30T04:05:56;29.02;;;24.92;;
52380;SDS011;38310;52.796;6.942;2024-01-30T04:08:22;28.33;;;24.15;;
52380;SDS011;38310;52.796;6.942;2024-01-30T04:10:47;28.95;;;25.17;;
52380;SDS011;38310;52.796;6.942;2024-01-30T04:13:14;27.33;;;22.77;;
52380;SDS011;38310;52.796;6.942;2024-01-30T04:15:40;27.38;;;24.33;;
52380;SDS011;38310;52.796;6.942;2024-01-30T04:18:05;28.63;;;23.38;;
52380;SDS011;38310;52.796;6.942;2024-01-30T04:20:31;27.02;;;24.08;;
52380;SDS011;38310;52.796;6.942;2024-01-30T04:22:57;27.70;;;21.80;;
52380;SDS011;38310;52.796;6.942;2024-01-30T04:25:22;25.95;;;23.00;;
52380;SDS011;38310;52.796;6.942;2024-01-30T04:27:48;27.58;;;23.48;;
52380;SDS011;38310;52.796;6.942;2024-01-30T04:30:14;26.15;;;23.30;;
52380;SDS011;38310;52.796;6.942;2024-01-30T04:32:40;27.27;;;24.27;;
52380;SDS011;38310;52.796;6.942;2024-01-30T04:35:06;29.45;;;24.05;;
52380;SDS011;38310;52.796;6.942;2024-01-30T04:37:32;29.17;;;24.13;;
52380;SDS011;38310;52.796;6.942;2024-01-30T04:39:57;29.15;;;24.88;;
52380;SDS011;38310;52.796;6.942;2024-01-30T04:42:23;27.60;;;24.38;;
52380;SDS011;38310;52.796;6.942;2024-01-30T04:44:49;29.33;;;23.90;;
52380;SDS011;38310;52.796;6.942;2024-01-30T04:47:15;28.38;;;23.52;;
52380;SDS011;38310;52.796;6.942;2024-01-30T04:49:41;27.30;;;23.55;;
52380;SDS011;38310;52.796;6.942;2024-01-30T04:52:08;30.17;;;24.63;;
52380;SDS011;38310;52.796;6.942;2024-01-30T04:54:34;27.90;;;24.42;;
52380;SDS011;38310;52.796;6.942;2024-01-30T04:57:04;27.92;;;23.90;;
52380;SDS011;38310;52.796;6.942;2024-01-30T04:59:33;31.67;;;25.33;;
52380;SDS011;38310;52.796;6.942;2024-01-30T05:01:59;30.67;;;23.50;;
52380;SDS011;38310;52.796;6.942;2024-01-30T05:04:25;26.50;;;23.63;;
52380;SDS011;38310;52.796;6.942;2024-01-30T05:06:50;27.92;;;24.05;;
52380;SDS011;38310;52.796;6.942;2024-01-30T05:09:16;26.85;;;22.85;;
52380;SDS011;38310;52.796;6.942;2024-01-30T05:11:42;25.45;;;22.35;;
52380;SDS011;38310;52.796;6.942;2024-01-30T05:14:07;26.40;;;22.70;;
52380;SDS011;38310;52.796;6.942;2024-01-30T05:16:37;29.17;;;22.98;;
52380;SDS011;38310;52.796;6.942;2024-01-30T05:19:02;26.80;;;22.52;;
52380;SDS011;38310;52.796;6.942;2024-01-30T05:21:28;28.15;;;23.08;;
52380;SDS011;38310;52.796;6.942;2024-01-30T05:23:54;26.60;;;22.02;;
52380;SDS011;38310;52.796;6.942;2024-01-30T05:26:19;24.50;;;21.63;;
52380;SDS011;38310;52.796;6.942;2024-01-30T05:28:45;27.92;;;21.85;;
52380;SDS011;38310;52.796;6.942;2024-01-30T05:31:11;23.70;;;21.17;;
52380;SDS011;38310;52.796;6.942;2024-01-30T05:33:37;27.00;;;21.15;;
52380;SDS011;38310;52.796;6.942;2024-01-30T05:36:03;25.73;;;21.88;;
52380;SDS011;38310;52.796;6.942;2024-01-30T05:38:29;24.85;;;21.73;;
52380;SDS011;38310;52.796;6.942;2024-01-30T05:40:55;24.52;;;21.58;;
52380;SDS011;38310;52.796;6.942;2024-01-30T05:43:23;27.00;;;21.63;;
52380;SDS011;38310;52.796;6.942;2024-01-30T05:45:49;28.00;;;20.52;;
52380;SDS011;38310;52.796;6.942;2024-01-30T05:48:14;24.58;;;21.50;;
52380;SDS011;38310;52.796;6.942;2024-01-30T05:50:40;26.90;;;21.67;;
52380;SDS011;38310;52.796;6.942;2024-01-30T05:53:09;25.10;;;21.02;;
52380;SDS011;38310;52.796;6.942;2024-01-30T05:55:34;24.98;;;20.90;;
52380;SDS011;38310;52.796;6.942;2024-01-30T05:58:00;24.75;;;21.08;;
52380;SDS011;38310;52.796;6.942;2024-01-30T06:00:26;25.42;;;20.50;;
52380;SDS011;38310;52.796;6.942;2024-01-30T06:02:52;27.65;;;20.83;;
52380;SDS011;38310;52.796;6.942;2024-01-30T06:05:18;25.17;;;21.60;;
52380;SDS011;38310;52.796;6.942;2024-01-30T06:07:43;23.95;;;20.30;;
52380;SDS011;38310;52.796;6.942;2024-01-30T06:10:09;23.98;;;20.65;;
52380;SDS011;38310;52.796;6.942;2024-01-30T06:12:35;24.40;;;21.27;;
52380;SDS011;38310;52.796;6.942;2024-01-30T06:15:01;24.25;;;20.70;;
52380;SDS011;38310;52.796;6.942;2024-01-30T06:17:28;24.65;;;20.48;;
52380;SDS011;38310;52.796;6.942;2024-01-30T06:19:53;24.00;;;19.52;;
52380;SDS011;38310;52.796;6.942;2024-01-30T06:22:19;24.88;;;19.83;;
52380;SDS011;38310;52.796;6.942;2024-01-30T06:24:45;23.77;;;19.60;;
52380;SDS011;38310;52.796;6.942;2024-01-30T06:27:13;23.33;;;19.13;;
52380;SDS011;38310;52.796;6.942;2024-01-30T06:29:40;23.15;;;19.33;;
52380;SDS011;38310;52.796;6.942;2024-01-30T06:32:08;21.55;;;18.52;;
52380;SDS011;38310;52.796;6.942;2024-01-30T06:34:34;23.45;;;18.80;;
52380;SDS011;38310;52.796;6.942;2024-01-30T06:36:59;21.52;;;17.17;;
52380;SDS011;38310;52.796;6.942;2024-01-30T06:39:26;24.33;;;18.10;;
52380;SDS011;38310;52.796;6.942;2024-01-30T06:41:52;20.90;;;17.85;;
52380;SDS011;38310;52.796;6.942;2024-01-30T06:44:18;22.35;;;17.77;;
52380;SDS011;38310;52.796;6.942;2024-01-30T06:46:43;22.83;;;18.23;;
52380;SDS011;38310;52.796;6.942;2024-01-30T06:49:09;24.05;;;18.35;;
52380;SDS011;38310;52.796;6.942;2024-01-30T06:51:35;20.35;;;17.20;;
52380;SDS011;38310;52.796;6.942;2024-01-30T06:54:01;22.65;;;17.15;;
52380;SDS011;38310;52.796;6.942;2024-01-30T06:56:26;21.33;;;16.77;;
52380;SDS011;38310;52.796;6.942;2024-01-30T06:58:54;19.33;;;17.08;;
52380;SDS011;38310;52.796;6.942;2024-01-30T07:01:19;23.23;;;17.98;;
52380;SDS011;38310;52.796;6.942;2024-01-30T07:03:46;20.05;;;15.95;;
52380;SDS011;38310;52.796;6.942;2024-01-30T07:06:12;21.05;;;16.83;;
52380;SDS011;38310;52.796;6.942;2024-01-30T07:08:37;19.05;;;16.02;;
52380;SDS011;38310;52.796;6.942;2024-01-30T07:11:06;22.70;;;16.98;;
52380;SDS011;38310;52.796;6.942;2024-01-30T07:13:32;20.80;;;15.65;;
52380;SDS011;38310;52.796;6.942;2024-01-30T07:15:57;20.35;;;15.98;;
52380;SDS011;38310;52.796;6.942;2024-01-30T07:18:23;23.40;;;16.80;;
52380;SDS011;38310;52.796;6.942;2024-01-30T07:20:49;20.55;;;16.38;;
52380;SDS011;38310;52.796;6.942;2024-01-30T07:23:15;21.35;;;15.68;;
52380;SDS011;38310;52.796;6.942;2024-01-30T07:25:46;19.10;;;15.55;;
52380;SDS011;38310;52.796;6.942;2024-01-30T07:28:14;20.10;;;15.57;;
52380;SDS011;38310;52.796;6.942;2024-01-30T07:30:43;20.73;;;14.88;;
52380;SDS011;38310;52.796;6.942;2024-01-30T07:33:10;21.35;;;16.00;;
52380;SDS011;38310;52.796;6.942;2024-01-30T07:35:39;18.98;;;14.82;;
52380;SDS011;38310;52.796;6.942;2024-01-30T07:38:05;19.38;;;14.98;;
52380;SDS011;38310;52.796;6.942;2024-01-30T07:40:31;19.75;;;14.73;;
52380;SDS011;38310;52.796;6.942;2024-01-30T07:42:58;19.95;;;15.75;;
52380;SDS011;38310;52.796;6.942;2024-01-30T07:45:24;18.42;;;14.95;;
52380;SDS011;38310;52.796;6.942;2024-01-30T07:47:52;20.85;;;15.07;;
52380;SDS011;38310;52.796;6.942;2024-01-30T07:50:18;20.77;;;15.32;;
52380;SDS011;38310;52.796;6.942;2024-01-30T07:52:45;20.38;;;14.90;;
52380;SDS011;38310;52.796;6.942;2024-01-30T07:55:11;18.05;;;14.40;;
52380;SDS011;38310;52.796;6.942;2024-01-30T07:57:40;17.73;;;14.57;;
52380;SDS011;38310;52.796;6.942;2024-01-30T08:00:09;20.65;;;15.23;;
52380;SDS011;38310;52.796;6.942;2024-01-30T08:02:36;16.73;;;14.07;;
52380;SDS011;38310;52.796;6.942;2024-01-30T08:05:02;20.60;;;15.35;;
52380;SDS011;38310;52.796;6.942;2024-01-30T08:07:28;17.98;;;14.95;;
52380;SDS011;38310;52.796;6.942;2024-01-30T08:09:55;19.00;;;14.65;;
52380;SDS011;38310;52.796;6.942;2024-01-30T08:12:21;17.10;;;14.23;;
52380;SDS011;38310;52.796;6.942;2024-01-30T08:14:47;19.00;;;15.00;;
52380;SDS011;38310;52.796;6.942;2024-01-30T08:17:12;17.50;;;13.75;;
52380;SDS011;38310;52.796;6.942;2024-01-30T08:19:38;17.85;;;14.40;;
52380;SDS011;38310;52.796;6.942;2024-01-30T08:22:04;17.33;;;14.15;;
52380;SDS011;38310;52.796;6.942;2024-01-30T08:24:29;17.35;;;13.63;;
52380;SDS011;38310;52.796;6.942;2024-01-30T08:26:55;18.60;;;14.55;;
52380;SDS011;38310;52.796;6.942;2024-01-30T08:29:21;15.98;;;13.65;;
52380;SDS011;38310;52.796;6.942;2024-01-30T08:31:47;20.13;;;14.50;;
52380;SDS011;38310;52.796;6.942;2024-01-30T08:34:12;17.90;;;15.02;;
52380;SDS011;38310;52.796;6.942;2024-01-30T08:36:38;17.42;;;14.30;;
52380;SDS011;38310;52.796;6.942;2024-01-30T08:39:04;18.33;;;14.00;;
52380;SDS011;38310;52.796;6.942;2024-01-30T08:41:30;17.73;;;14.77;;
52380;SDS011;38310;52.796;6.942;2024-01-30T08:43:56;19.10;;;14.02;;
52380;SDS011;38310;52.796;6.942;2024-01-30T08:46:21;17.23;;;14.10;;
52380;SDS011;38310;52.796;6.942;2024-01-30T08:48:47;18.38;;;14.10;;
52380;SDS011;38310;52.796;6.942;2024-01-30T08:51:13;19.05;;;14.60;;
52380;SDS011;38310;52.796;6.942;2024-01-30T08:53:40;18.52;;;14.82;;
52380;SDS011;38310;52.796;6.942;2024-01-30T08:56:06;19.02;;;14.07;;
52380;SDS011;38310;52.796;6.942;2024-01-30T08:58:32;17.50;;;13.88;;
52380;SDS011;38310;52.796;6.942;2024-01-30T09:00:58;18.10;;;14.38;;
52380;SDS011;38310;52.796;6.942;2024-01-30T09:03:24;19.95;;;14.20;;
52380;SDS011;38310;52.796;6.942;2024-01-30T09:05:49;16.92;;;13.45;;
52380;SDS011;38310;52.796;6.942;2024-01-30T09:08:15;18.98;;;14.02;;
52380;SDS011;38310;52.796;6.942;2024-01-30T09:10:41;15.82;;;14.07;;
52380;SDS011;38310;52.796;6.942;2024-01-30T09:13:07;21.38;;;14.23;;
52380;SDS011;38310;52.796;6.942;2024-01-30T09:15:32;18.35;;;13.93;;
52380;SDS011;38310;52.796;6.942;2024-01-30T09:17:58;16.25;;;13.32;;
52380;SDS011;38310;52.796;6.942;2024-01-30T09:20:24;17.80;;;13.90;;
52380;SDS011;38310;52.796;6.942;2024-01-30T09:22:50;19.00;;;14.15;;
52380;SDS011;38310;52.796;6.942;2024-01-30T09:25:15;20.05;;;13.48;;
52380;SDS011;38310;52.796;6.942;2024-01-30T09:27:41;20.02;;;13.98;;
52380;SDS011;38310;52.796;6.942;2024-01-30T09:30:07;16.92;;;12.85;;
52380;SDS011;38310;52.796;6.942;2024-01-30T09:32:33;17.42;;;12.93;;
52380;SDS011;38310;52.796;6.942;2024-01-30T09:34:58;15.75;;;13.05;;
52380;SDS011;38310;52.796;6.942;2024-01-30T09:37:24;16.85;;;13.82;;
52380;SDS011;38310;52.796;6.942;2024-01-30T09:39:50;15.98;;;12.15;;
52380;SDS011;38310;52.796;6.942;2024-01-30T09:42:33;16.63;;;13.05;;
52380;SDS011;38310;52.796;6.942;2024-01-30T09:45:04;15.55;;;12.50;;
52380;SDS011;38310;52.796;6.942;2024-01-30T09:47:41;17.15;;;12.77;;
52380;SDS011;38310;52.796;6.942;2024-01-30T09:50:08;17.23;;;12.63;;
52380;SDS011;38310;52.796;6.942;2024-01-30T09:52:35;16.27;;;12.45;;
52380;SDS011;38310;52.796;6.942;2024-01-30T09:55:01;16.75;;;12.38;;
52380;SDS011;38310;52.796;6.942;2024-01-30T09:57:28;22.10;;;13.07;;
52380;SDS011;38310;52.796;6.942;2024-01-30T09:59:53;17.23;;;12.60;;
52380;SDS011;38310;52.796;6.942;2024-01-30T10:02:19;15.38;;;12.50;;
52380;SDS011;38310;52.796;6.942;2024-01-30T10:04:52;15.98;;;12.45;;
52380;SDS011;38310;52.796;6.942;2024-01-30T10:07:18;18.48;;;12.27;;
52380;SDS011;38310;52.796;6.942;2024-01-30T10:09:44;13.82;;;11.95;;
52380;SDS011;38310;52.796;6.942;2024-01-30T10:12:11;16.77;;;13.02;;
52380;SDS011;38310;52.796;6.942;2024-01-30T10:14:41;15.77;;;12.20;;
52380;SDS011;38310;52.796;6.942;2024-01-30T10:17:08;17.17;;;12.48;;
52380;SDS011;38310;52.796;6.942;2024-01-30T10:19:38;16.50;;;12.20;;
52380;SDS011;38310;52.796;6.942;2024-01-30T10:22:05;15.43;;;12.07;;
52380;SDS011;38310;52.796;6.942;2024-01-30T10:24:32;15.65;;;12.75;;
52380;SDS011;38310;52.796;6.942;2024-01-30T10:26:59;16.30;;;12.68;;
52380;SDS011;38310;52.796;6.942;2024-01-30T10:29:25;15.65;;;12.77;;
52380;SDS011;38310;52.796;6.942;2024-01-30T10:34:25;14.50;;;12.57;;
52380;SDS011;38310;52.796;6.942;2024-01-30T10:36:51;19.27;;;12.93;;
52380;SDS011;38310;52.796;6.942;2024-01-30T10:39:32;15.20;;;12.57;;
52380;SDS011;38310;52.796;6.942;2024-01-30T10:42:04;16.80;;;12.68;;
52380;SDS011;38310;52.796;6.942;2024-01-30T10:44:36;18.73;;;12.73;;
52380;SDS011;38310;52.796;6.942;2024-01-30T10:47:08;17.63;;;12.88;;
52380;SDS011;38310;52.796;6.942;2024-01-30T10:49:38;17.60;;;13.00;;
52380;SDS011;38310;52.796;6.942;2024-01-30T10:52:07;14.82;;;12.50;;
52380;SDS011;38310;52.796;6.942;2024-01-30T10:54:34;16.00;;;12.25;;
52380;SDS011;38310;52.796;6.942;2024-01-30T10:57:01;17.83;;;12.38;;
52380;SDS011;38310;52.796;6.942;2024-01-30T10:59:29;16.70;;;12.48;;
52380;SDS011;38310;52.796;6.942;2024-01-30T11:01:57;18.27;;;12.18;;
52380;SDS011;38310;52.796;6.942;2024-01-30T11:04:24;16.40;;;12.20;;
52380;SDS011;38310;52.796;6.942;2024-01-30T11:06:50;17.10;;;12.13;;
52380;SDS011;38310;52.796;6.942;2024-01-30T11:09:17;20.58;;;12.38;;
52380;SDS011;38310;52.796;6.942;2024-01-30T11:11:50;15.95;;;12.52;;
52380;SDS011;38310;52.796;6.942;2024-01-30T11:14:16;20.98;;;12.85;;
52380;SDS011;38310;52.796;6.942;2024-01-30T11:16:48;16.40;;;12.10;;
52380;SDS011;38310;52.796;6.942;2024-01-30T11:19:14;17.02;;;11.77;;
52380;SDS011;38310;52.796;6.942;2024-01-30T11:21:41;17.25;;;13.30;;
52380;SDS011;38310;52.796;6.942;2024-01-30T11:24:07;15.55;;;12.05;;
52380;SDS011;38310;52.796;6.942;2024-01-30T11:26:34;16.38;;;12.63;;
52380;SDS011;38310;52.796;6.942;2024-01-30T11:29:03;18.05;;;13.05;;
52380;SDS011;38310;52.796;6.942;2024-01-30T11:31:29;19.00;;;12.45;;
52380;SDS011;38310;52.796;6.942;2024-01-30T11:33:55;18.20;;;12.32;;
52380;SDS011;38310;52.796;6.942;2024-01-30T11:36:25;15.43;;;12.23;;
52380;SDS011;38310;52.796;6.942;2024-01-30T11:38:52;15.02;;;12.05;;
52380;SDS011;38310;52.796;6.942;2024-01-30T11:41:19;16.58;;;12.32;;
52380;SDS011;38310;52.796;6.942;2024-01-30T11:43:54;17.73;;;13.27;;
52380;SDS011;38310;52.796;6.942;2024-01-30T11:46:19;17.50;;;12.95;;
52380;SDS011;38310;52.796;6.942;2024-01-30T11:48:45;18.50;;;12.23;;
52380;SDS011;38310;52.796;6.942;2024-01-30T11:51:12;18.45;;;12.90;;
52380;SDS011;38310;52.796;6.942;2024-01-30T11:53:38;15.20;;;12.50;;
52380;SDS011;38310;52.796;6.942;2024-01-30T11:56:06;19.75;;;13.70;;
52380;SDS011;38310;52.796;6.942;2024-01-30T11:58:33;18.85;;;13.57;;
52380;SDS011;38310;52.796;6.942;2024-01-30T12:00:58;16.55;;;13.85;;
52380;SDS011;38310;52.796;6.942;2024-01-30T12:03:25;18.23;;;13.30;;
52380;SDS011;38310;52.796;6.942;2024-01-30T12:05:57;17.27;;;13.48;;
52380;SDS011;38310;52.796;6.942;2024-01-30T12:08:23;17.95;;;14.27;;
52380;SDS011;38310;52.796;6.942;2024-01-30T12:10:59;19.92;;;13.55;;
52380;SDS011;38310;52.796;6.942;2024-01-30T12:13:27;19.45;;;12.45;;
52380;SDS011;38310;52.796;6.942;2024-01-30T12:15:54;14.05;;;12.05;;
52380;SDS011;38310;52.796;6.942;2024-01-30T12:18:20;16.70;;;12.82;;
52380;SDS011;38310;52.796;6.942;2024-01-30T12:20:56;20.05;;;12.75;;
52380;SDS011;38310;52.796;6.942;2024-01-30T12:23:24;17.52;;;13.02;;
52380;SDS011;38310;52.796;6.942;2024-01-30T12:25:51;15.55;;;12.88;;
52380;SDS011;38310;52.796;6.942;2024-01-30T12:28:17;17.83;;;13.30;;
52380;SDS011;38310;52.796;6.942;2024-01-30T12:30:43;16.23;;;13.23;;
52380;SDS011;38310;52.796;6.942;2024-01-30T12:33:09;16.48;;;12.35;;
52380;SDS011;38310;52.796;6.942;2024-01-30T12:35:35;18.50;;;13.20;;
52380;SDS011;38310;52.796;6.942;2024-01-30T12:38:01;17.83;;;12.50;;
52380;SDS011;38310;52.796;6.942;2024-01-30T12:40:27;20.40;;;12.55;;
52380;SDS011;38310;52.796;6.942;2024-01-30T12:42:53;16.48;;;12.95;;
52380;SDS011;38310;52.796;6.942;2024-01-30T12:45:19;19.45;;;12.63;;
52380;SDS011;38310;52.796;6.942;2024-01-30T12:47:47;14.05;;;12.48;;
52380;SDS011;38310;52.796;6.942;2024-01-30T12:50:13;17.85;;;12.65;;
52380;SDS011;38310;52.796;6.942;2024-01-30T12:52:41;16.45;;;12.15;;
52380;SDS011;38310;52.796;6.942;2024-01-30T12:55:07;15.68;;;11.85;;
52380;SDS011;38310;52.796;6.942;2024-01-30T12:57:33;17.38;;;12.15;;
52380;SDS011;38310;52.796;6.942;2024-01-30T12:59:59;14.52;;;12.40;;
52380;SDS011;38310;52.796;6.942;2024-01-30T13:02:25;22.33;;;12.55;;
52380;SDS011;38310;52.796;6.942;2024-01-30T13:04:53;15.50;;;12.10;;
52380;SDS011;38310;52.796;6.942;2024-01-30T13:07:19;22.92;;;13.68;;
52380;SDS011;38310;52.796;6.942;2024-01-30T13:09:45;17.58;;;13.82;;
52380;SDS011;38310;52.796;6.942;2024-01-30T13:12:12;19.35;;;13.93;;
52380;SDS011;38310;52.796;6.942;2024-01-30T13:14:38;16.08;;;12.50;;
52380;SDS011;38310;52.796;6.942;2024-01-30T13:17:04;17.38;;;12.18;;
52380;SDS011;38310;52.796;6.942;2024-01-30T13:19:30;17.15;;;13.32;;
52380;SDS011;38310;52.796;6.942;2024-01-30T13:21:55;17.20;;;13.20;;
52380;SDS011;38310;52.796;6.942;2024-01-30T13:24:21;17.88;;;12.93;;
52380;SDS011;38310;52.796;6.942;2024-01-30T13:26:47;16.48;;;11.90;;
52380;SDS011;38310;52.796;6.942;2024-01-30T13:29:13;14.18;;;12.20;;
52380;SDS011;38310;52.796;6.942;2024-01-30T13:31:39;17.10;;;11.25;;
52380;SDS011;38310;52.796;6.942;2024-01-30T13:34:05;15.13;;;10.35;;
52380;SDS011;38310;52.796;6.942;2024-01-30T13:36:34;17.15;;;9.57;;
52380;SDS011;38310;52.796;6.942;2024-01-30T13:39:00;13.27;;;9.52;;
52380;SDS011;38310;52.796;6.942;2024-01-30T13:41:27;17.25;;;10.23;;
52380;SDS011;38310;52.796;6.942;2024-01-30T13:43:55;12.05;;;8.63;;
52380;SDS011;38310;52.796;6.942;2024-01-30T13:46:20;12.60;;;8.77;;
52380;SDS011;38310;52.796;6.942;2024-01-30T13:48:46;12.00;;;8.07;;
52380;SDS011;38310;52.796;6.942;2024-01-30T13:51:12;9.82;;;7.32;;
52380;SDS011;38310;52.796;6.942;2024-01-30T13:53:38;11.43;;;6.15;;
52380;SDS011;38310;52.796;6.942;2024-01-30T13:56:04;10.65;;;5.68;;
52380;SDS011;38310;52.796;6.942;2024-01-30T13:58:31;9.45;;;5.72;;
52380;SDS011;38310;52.796;6.942;2024-01-30T14:01:02;8.70;;;5.53;;
52380;SDS011;38310;52.796;6.942;2024-01-30T14:03:27;7.35;;;4.60;;
52380;SDS011;38310;52.796;6.942;2024-01-30T14:05:54;7.20;;;4.50;;
52380;SDS011;38310;52.796;6.942;2024-01-30T14:08:20;9.10;;;4.95;;
52380;SDS011;38310;52.796;6.942;2024-01-30T14:10:49;6.57;;;3.97;;
52380;SDS011;38310;52.796;6.942;2024-01-30T14:13:15;8.23;;;4.85;;
52380;SDS011;38310;52.796;6.942;2024-01-30T14:15:40;7.00;;;5.00;;
52380;SDS011;38310;52.796;6.942;2024-01-30T14:18:06;8.48;;;4.90;;
52380;SDS011;38310;52.796;6.942;2024-01-30T14:20:34;7.70;;;4.70;;
52380;SDS011;38310;52.796;6.942;2024-01-30T14:23:00;6.47;;;4.95;;